Time,TemperatureF,DewpointF,PressureIn,WindDirection,WindDirectionDegrees,WindSpeedMPH,WindSpeedGustMPH,Humidity,HourlyPrecipIn,Conditions,Clouds,dailyrainin,SoftwareType,DateUTC
2013-05-25 00:01:00,41.2,39.6,29.99,SW,221,0.0,0.0,94,0.00,,,0.00,Wunderground v.1.12,2013-05-25 04:01:00,
2013-05-25 00:03:00,41.2,39.6,29.99,SW,221,0.0,0.0,94,0.00,,,0.00,Wunderground v.1.12,2013-05-25 04:03:00,
2013-05-25 00:04:00,41.3,39.7,29.99,N/A,-737280,0.0,0.0,94,0.00,,,0.01,Wunderground v.1.12,2013-05-25 04:04:00,
2013-05-25 00:05:00,41.2,39.6,29.99,SW,221,0.0,0.0,94,0.00,,,0.00,Wunderground v.1.12,2013-05-25 04:05:00,
2013-05-25 00:07:00,41.2,39.6,29.99,SW,221,0.0,0.0,94,0.00,,,0.00,Wunderground v.1.12,2013-05-25 04:07:00,
2013-05-25 00:09:00,41.2,39.6,29.99,N/A,-737280,0.0,0.0,94,0.00,,,0.01,Wunderground v.1.12,2013-05-25 04:09:00,
2013-05-25 00:10:00,41.2,39.6,29.99,SW,221,0.0,0.0,94,0.00,,,0.00,Wunderground v.1.12,2013-05-25 04:10:00,
2013-05-25 00:14:00,41.3,39.7,29.99,N/A,-737280,0.0,0.0,94,0.00,,,0.01,Wunderground v.1.12,2013-05-25 04:14:00,
2013-05-25 00:15:00,41.3,39.7,29.99,SW,221,0.0,0.0,94,0.00,,,0.00,Wunderground v.1.12,2013-05-25 04:15:00,
2013-05-25 00:19:00,41.3,39.7,29.99,N/A,-737280,0.0,0.0,94,0.00,,,0.01,Wunderground v.1.12,2013-05-25 04:19:00,
2013-05-25 00:21:00,41.2,39.6,29.99,SW,221,0.0,0.0,94,0.00,,,0.00,Wunderground v.1.12,2013-05-25 04:21:00,
2013-05-25 00:24:00,41.3,39.7,29.99,N/A,-737280,0.0,0.0,94,0.00,,,0.01,Wunderground v.1.12,2013-05-25 04:24:00,
2013-05-25 00:27:00,41.3,39.7,29.99,SW,221,0.0,0.0,94,0.00,,,0.00,Wunderground v.1.12,2013-05-25 04:27:00,
2013-05-25 00:29:00,41.3,39.7,29.98,N/A,-737280,0.0,0.0,94,0.00,,,0.01,Wunderground v.1.12,2013-05-25 04:29:00,
2013-05-25 00:32:00,41.3,39.7,29.98,SW,221,0.0,0.0,94,0.00,,,0.00,Wunderground v.1.12,2013-05-25 04:32:00,
2013-05-25 00:34:00,41.3,39.7,29.98,N/A,-737280,0.0,0.0,94,0.00,,,0.01,Wunderground v.1.12,2013-05-25 04:34:00,
2013-05-25 00:38:00,41.3,39.7,29.98,SW,221,0.0,0.0,94,0.00,,,0.00,Wunderground v.1.12,2013-05-25 04:38:00,
2013-05-25 00:39:00,41.3,39.7,29.98,N/A,-737280,0.0,0.0,94,0.00,,,0.01,Wunderground v.1.12,2013-05-25 04:39:00,
2013-05-25 00:44:00,41.2,39.6,29.98,SW,221,0.0,0.0,94,0.00,,,0.00,Wunderground v.1.12,2013-05-25 04:44:00,
2013-05-25 00:49:00,41.2,39.6,29.98,SW,221,0.0,0.0,94,0.00,,,0.00,Wunderground v.1.12,2013-05-25 04:49:00,
2013-05-25 00:54:00,41.3,40.0,29.98,SW,221,0.0,0.0,95,0.00,,,0.00,Wunderground v.1.12,2013-05-25 04:54:00,
2013-05-25 00:59:00,41.2,39.9,29.98,SW,221,0.0,0.0,95,0.00,,,0.00,Wunderground v.1.12,2013-05-25 04:59:00,
2013-05-25 01:04:00,41.1,40.0,29.98,N/A,-737280,0.0,0.0,96,0.00,,,0.01,Wunderground v.1.12,2013-05-25 05:04:00,
2013-05-25 01:05:00,41.2,39.9,29.98,SW,221,0.0,0.0,95,0.00,,,0.00,Wunderground v.1.12,2013-05-25 05:05:00,
2013-05-25 01:09:00,41.1,40.0,29.98,N/A,-737280,0.0,0.0,96,0.00,,,0.01,Wunderground v.1.12,2013-05-25 05:09:00,
2013-05-25 01:10:00,41.1,39.8,29.98,SW,221,0.0,0.0,95,0.00,,,0.00,Wunderground v.1.12,2013-05-25 05:10:00,
2013-05-25 01:14:00,41.1,40.0,29.97,N/A,-737280,0.0,0.0,96,0.00,,,0.01,Wunderground v.1.12,2013-05-25 05:14:00,
2013-05-25 01:16:00,41.1,39.8,29.98,SW,221,0.0,0.0,95,0.00,,,0.00,Wunderground v.1.12,2013-05-25 05:16:00,
2013-05-25 01:19:00,41.1,40.0,29.97,N/A,-737280,0.0,0.0,96,0.00,,,0.01,Wunderground v.1.12,2013-05-25 05:19:00,
2013-05-25 01:21:00,41.1,40.0,29.98,SW,221,0.0,0.0,96,0.00,,,0.00,Wunderground v.1.12,2013-05-25 05:21:00,
2013-05-25 01:24:00,41.1,40.0,29.97,N/A,-737280,0.0,0.0,96,0.00,,,0.01,Wunderground v.1.12,2013-05-25 05:24:00,
2013-05-25 01:27:00,41.1,40.0,29.98,SW,221,0.0,0.0,96,0.00,,,0.00,Wunderground v.1.12,2013-05-25 05:27:00,
2013-05-25 01:29:00,41.1,40.0,29.97,N/A,-737280,0.0,0.0,96,0.00,,,0.01,Wunderground v.1.12,2013-05-25 05:29:00,
2013-05-25 01:32:00,41.1,40.0,29.97,SW,221,0.0,0.0,96,0.00,,,0.00,Wunderground v.1.12,2013-05-25 05:32:00,
2013-05-25 01:34:00,41.1,40.0,29.97,N/A,-737280,0.0,0.0,96,0.00,,,0.01,Wunderground v.1.12,2013-05-25 05:34:00,
2013-05-25 01:39:00,41.1,40.0,29.97,SW,221,0.0,0.0,96,0.00,,,0.00,Wunderground v.1.12,2013-05-25 05:39:00,
2013-05-25 01:44:00,41.1,40.0,29.97,SW,222,0.0,0.0,96,0.00,,,0.00,Wunderground v.1.12,2013-05-25 05:44:00,
2013-05-25 01:49:00,41.1,40.0,29.97,SW,221,0.0,0.0,96,0.00,,,0.00,Wunderground v.1.12,2013-05-25 05:49:00,
2013-05-25 01:54:00,41.1,40.0,29.97,SW,221,0.0,0.0,96,0.00,,,0.00,Wunderground v.1.12,2013-05-25 05:54:00,
2013-05-25 01:59:00,41.1,40.0,29.96,SW,221,0.0,0.0,96,0.00,,,0.00,Wunderground v.1.12,2013-05-25 05:59:00,
2013-05-25 02:04:00,41.2,40.1,29.95,N/A,-737280,0.0,0.0,96,0.00,,,0.01,Wunderground v.1.12,2013-05-25 06:04:00,
2013-05-25 02:05:00,41.1,40.0,29.96,SW,221,0.0,0.0,96,0.00,,,0.00,Wunderground v.1.12,2013-05-25 06:05:00,
2013-05-25 02:09:00,41.2,39.9,29.95,N/A,-737280,0.0,0.0,95,0.00,,,0.01,Wunderground v.1.12,2013-05-25 06:09:00,
2013-05-25 02:10:00,41.2,40.1,29.96,SW,221,0.0,0.0,96,0.00,,,0.00,Wunderground v.1.12,2013-05-25 06:10:00,
2013-05-25 02:14:00,41.3,40.0,29.95,N/A,-737280,0.0,0.0,95,0.00,,,0.01,Wunderground v.1.12,2013-05-25 06:14:00,
2013-05-25 02:15:00,41.2,39.9,29.95,SW,221,0.0,0.0,95,0.00,,,0.00,Wunderground v.1.12,2013-05-25 06:15:00,
2013-05-25 02:19:00,41.3,39.7,29.95,N/A,-737280,0.0,0.0,94,0.00,,,0.01,Wunderground v.1.12,2013-05-25 06:19:00,
2013-05-25 02:20:00,41.2,39.9,29.95,SW,221,0.0,0.0,95,0.00,,,0.00,Wunderground v.1.12,2013-05-25 06:20:00,
2013-05-25 02:24:00,41.3,39.7,29.95,N/A,-737280,0.0,0.0,94,0.00,,,0.01,Wunderground v.1.12,2013-05-25 06:24:00,
2013-05-25 02:26:00,41.3,40.0,29.95,SW,221,0.0,0.0,95,0.00,,,0.00,Wunderground v.1.12,2013-05-25 06:26:00,
2013-05-25 02:29:00,41.5,39.9,29.95,N/A,-737280,0.0,0.0,94,0.00,,,0.01,Wunderground v.1.12,2013-05-25 06:29:00,
2013-05-25 02:31:00,41.3,40.0,29.95,SW,225,0.0,0.0,95,0.00,,,0.00,Wunderground v.1.12,2013-05-25 06:31:00,
2013-05-25 02:34:00,41.5,39.9,29.95,N/A,-737280,0.0,0.0,94,0.00,,,0.01,Wunderground v.1.12,2013-05-25 06:34:00,
2013-05-25 02:36:00,41.3,40.0,29.95,SW,221,0.0,0.0,95,0.00,,,0.00,Wunderground v.1.12,2013-05-25 06:36:00,
2013-05-25 02:39:00,41.5,39.9,29.95,N/A,-737280,0.0,0.0,94,0.00,,,0.01,Wunderground v.1.12,2013-05-25 06:39:00,
2013-05-25 02:41:00,41.3,39.7,29.95,SW,221,0.0,0.0,94,0.00,,,0.00,Wunderground v.1.12,2013-05-25 06:41:00,
2013-05-25 02:44:00,41.6,39.7,29.94,N/A,-737280,0.0,0.0,93,0.00,,,0.01,Wunderground v.1.12,2013-05-25 06:44:00,
2013-05-25 02:46:00,41.5,39.9,29.95,SW,221,0.0,0.0,94,0.00,,,0.00,Wunderground v.1.12,2013-05-25 06:46:00,
2013-05-25 02:49:00,41.6,39.7,29.94,N/A,-737280,0.0,0.0,93,0.00,,,0.01,Wunderground v.1.12,2013-05-25 06:49:00,
2013-05-25 02:51:00,41.5,39.9,29.95,SW,221,0.0,0.0,94,0.00,,,0.00,Wunderground v.1.12,2013-05-25 06:51:00,
2013-05-25 02:54:00,41.8,39.6,29.94,N/A,-737280,0.0,0.0,92,0.00,,,0.01,Wunderground v.1.12,2013-05-25 06:54:00,
2013-05-25 02:56:00,41.6,39.7,29.95,SW,227,0.0,0.0,93,0.00,,,0.00,Wunderground v.1.12,2013-05-25 06:56:00,
2013-05-25 02:59:00,41.9,39.7,29.94,N/A,-737280,0.0,0.0,92,0.00,,,0.01,Wunderground v.1.12,2013-05-25 06:59:00,
2013-05-25 03:01:00,41.6,39.7,29.95,SW,221,0.0,0.0,93,0.00,,,0.00,Wunderground v.1.12,2013-05-25 07:01:00,
2013-05-25 03:04:00,41.9,39.7,29.94,N/A,-737280,0.0,0.0,92,0.00,,,0.01,Wunderground v.1.12,2013-05-25 07:04:00,
2013-05-25 03:06:00,41.8,39.6,29.95,SW,222,0.0,0.0,92,0.00,,,0.00,Wunderground v.1.12,2013-05-25 07:06:00,
2013-05-25 03:09:00,41.9,39.5,29.94,N/A,-737280,0.0,0.0,91,0.00,,,0.01,Wunderground v.1.12,2013-05-25 07:09:00,
2013-05-25 03:11:00,41.9,39.7,29.95,SW,221,0.0,0.0,92,0.00,,,0.00,Wunderground v.1.12,2013-05-25 07:11:00,
2013-05-25 03:14:00,42.1,39.4,29.95,N/A,-737280,0.0,0.0,90,0.00,,,0.01,Wunderground v.1.12,2013-05-25 07:14:00,
2013-05-25 03:16:00,41.9,39.7,29.94,SW,221,0.0,0.0,92,0.00,,,0.00,Wunderground v.1.12,2013-05-25 07:16:00,
2013-05-25 03:19:00,42.3,39.3,29.95,N/A,-737280,0.0,0.0,89,0.00,,,0.01,Wunderground v.1.12,2013-05-25 07:19:00,
2013-05-25 03:21:00,41.9,39.5,29.94,SW,221,0.0,0.0,91,0.00,,,0.00,Wunderground v.1.12,2013-05-25 07:21:00,
2013-05-25 03:24:00,42.3,39.0,29.95,N/A,-737280,0.0,0.0,88,0.00,,,0.01,Wunderground v.1.12,2013-05-25 07:24:00,
2013-05-25 03:26:00,42.1,39.4,29.94,SW,221,0.0,0.0,90,0.00,,,0.00,Wunderground v.1.12,2013-05-25 07:26:00,
2013-05-25 03:29:00,42.3,39.0,29.94,N/A,-737280,0.0,0.0,88,0.00,,,0.01,Wunderground v.1.12,2013-05-25 07:29:00,
2013-05-25 03:31:00,42.2,39.2,29.95,SW,223,0.0,0.0,89,0.00,,,0.00,Wunderground v.1.12,2013-05-25 07:31:00,
2013-05-25 03:34:00,42.5,39.2,29.94,N/A,-737280,0.0,0.0,88,0.00,,,0.01,Wunderground v.1.12,2013-05-25 07:34:00,
2013-05-25 03:36:00,42.3,39.3,29.95,SW,221,0.0,0.0,89,0.00,,,0.00,Wunderground v.1.12,2013-05-25 07:36:00,
2013-05-25 03:39:00,42.5,39.2,29.94,N/A,-737280,0.0,0.0,88,0.00,,,0.01,Wunderground v.1.12,2013-05-25 07:39:00,
2013-05-25 03:41:00,42.3,39.0,29.95,SW,221,0.0,0.0,88,0.00,,,0.00,Wunderground v.1.12,2013-05-25 07:41:00,
2013-05-25 03:44:00,42.6,39.0,29.94,N/A,-737280,0.0,0.0,87,0.00,,,0.01,Wunderground v.1.12,2013-05-25 07:44:00,
2013-05-25 03:47:00,42.3,39.0,29.94,SW,221,0.0,0.0,88,0.00,,,0.00,Wunderground v.1.12,2013-05-25 07:47:00,
2013-05-25 03:49:00,42.6,39.0,29.94,N/A,-737280,0.0,0.0,87,0.00,,,0.01,Wunderground v.1.12,2013-05-25 07:49:00,
2013-05-25 03:52:00,42.5,39.2,29.94,SW,221,0.0,0.0,88,0.00,,,0.00,Wunderground v.1.12,2013-05-25 07:52:00,
2013-05-25 03:54:00,42.8,38.9,29.94,N/A,-737280,0.0,0.0,86,0.00,,,0.01,Wunderground v.1.12,2013-05-25 07:54:00,
2013-05-25 03:57:00,42.5,38.9,29.94,SW,221,0.0,0.0,87,0.00,,,0.00,Wunderground v.1.12,2013-05-25 07:57:00,
2013-05-25 03:59:00,42.8,38.9,29.94,N/A,-737280,0.0,0.0,86,0.00,,,0.01,Wunderground v.1.12,2013-05-25 07:59:00,
2013-05-25 04:02:00,42.6,39.0,29.94,SW,221,0.0,0.0,87,0.00,,,0.00,Wunderground v.1.12,2013-05-25 08:02:00,
2013-05-25 04:04:00,42.8,38.6,29.94,N/A,-737280,0.0,0.0,85,0.00,,,0.01,Wunderground v.1.12,2013-05-25 08:04:00,
2013-05-25 04:08:00,42.8,38.9,29.94,SW,223,0.0,0.0,86,0.00,,,0.00,Wunderground v.1.12,2013-05-25 08:08:00,
2013-05-25 04:09:00,42.9,38.4,29.94,N/A,-737280,0.0,0.0,84,0.00,,,0.01,Wunderground v.1.12,2013-05-25 08:09:00,
2013-05-25 04:13:00,42.8,38.9,29.94,SW,223,0.0,0.0,86,0.00,,,0.00,Wunderground v.1.12,2013-05-25 08:13:00,
2013-05-25 04:14:00,42.9,38.7,29.94,N/A,-737280,0.0,0.0,85,0.00,,,0.01,Wunderground v.1.12,2013-05-25 08:14:00,
2013-05-25 04:18:00,42.8,38.6,29.94,SW,223,0.0,0.0,85,0.00,,,0.00,Wunderground v.1.12,2013-05-25 08:18:00,
2013-05-25 04:19:00,42.8,38.6,29.94,N/A,-737280,0.0,0.0,85,0.00,,,0.01,Wunderground v.1.12,2013-05-25 08:19:00,
2013-05-25 04:23:00,42.9,38.4,29.94,SW,222,0.0,0.0,84,0.00,,,0.00,Wunderground v.1.12,2013-05-25 08:23:00,
2013-05-25 04:24:00,42.8,38.6,29.94,N/A,-737280,0.0,0.0,85,0.00,,,0.01,Wunderground v.1.12,2013-05-25 08:24:00,
2013-05-25 04:28:00,42.9,38.7,29.94,SW,221,0.0,0.0,85,0.00,,,0.00,Wunderground v.1.12,2013-05-25 08:28:00,
2013-05-25 04:29:00,42.6,39.0,29.95,N/A,-737280,0.0,0.0,87,0.00,,,0.01,Wunderground v.1.12,2013-05-25 08:29:00,
2013-05-25 04:33:00,42.8,38.6,29.94,SW,221,0.0,0.0,85,0.00,,,0.00,Wunderground v.1.12,2013-05-25 08:33:00,
2013-05-25 04:34:00,42.5,38.9,29.95,N/A,-737280,0.0,0.0,87,0.00,,,0.01,Wunderground v.1.12,2013-05-25 08:34:00,
2013-05-25 04:38:00,42.8,38.6,29.94,SW,221,0.0,0.0,85,0.00,,,0.00,Wunderground v.1.12,2013-05-25 08:38:00,
2013-05-25 04:39:00,42.3,39.0,29.95,N/A,-737280,0.0,0.0,88,0.00,,,0.01,Wunderground v.1.12,2013-05-25 08:39:00,
2013-05-25 04:43:00,42.6,39.0,29.95,SW,224,0.0,0.0,87,0.00,,,0.00,Wunderground v.1.12,2013-05-25 08:43:00,
2013-05-25 04:44:00,42.1,38.8,29.95,N/A,-737280,0.0,0.0,88,0.00,,,0.01,Wunderground v.1.12,2013-05-25 08:44:00,
2013-05-25 04:49:00,42.5,38.9,29.95,SW,222,0.0,0.0,87,0.00,,,0.00,Wunderground v.1.12,2013-05-25 08:49:00,
2013-05-25 04:54:00,42.2,38.9,29.95,SW,221,0.0,0.0,88,0.00,,,0.00,Wunderground v.1.12,2013-05-25 08:54:00,
2013-05-25 04:59:00,42.1,38.8,29.95,SW,221,0.0,0.0,88,0.00,,,0.00,Wunderground v.1.12,2013-05-25 08:59:00,
2013-05-25 05:04:00,41.9,38.9,29.95,SW,221,0.0,0.0,89,0.00,,,0.00,Wunderground v.1.12,2013-05-25 09:04:00,
2013-05-25 05:09:00,41.8,39.1,29.95,SW,221,0.0,0.0,90,0.00,,,0.00,Wunderground v.1.12,2013-05-25 09:09:00,
2013-05-25 05:14:00,41.6,38.9,29.94,SW,220,0.0,0.0,90,0.00,,,0.00,Wunderground v.1.12,2013-05-25 09:14:00,
2013-05-25 05:19:00,41.6,39.2,29.94,SW,221,0.0,0.0,91,0.00,,,0.00,Wunderground v.1.12,2013-05-25 09:19:00,
2013-05-25 05:24:00,41.5,39.1,29.94,SW,221,0.0,0.0,91,0.00,,,0.00,Wunderground v.1.12,2013-05-25 09:24:00,
2013-05-25 05:29:00,41.3,38.9,29.95,N/A,-737280,0.0,0.0,91,0.00,,,0.01,Wunderground v.1.12,2013-05-25 09:29:00,
2013-05-25 05:30:00,41.3,38.9,29.94,SW,221,0.0,0.0,91,0.00,,,0.00,Wunderground v.1.12,2013-05-25 09:30:00,
2013-05-25 05:34:00,41.3,38.9,29.95,N/A,-737280,0.0,0.0,91,0.00,,,0.01,Wunderground v.1.12,2013-05-25 09:34:00,
2013-05-25 05:35:00,41.3,38.9,29.94,SW,221,0.0,0.0,91,0.00,,,0.00,Wunderground v.1.12,2013-05-25 09:35:00,
2013-05-25 05:39:00,41.3,38.9,29.95,N/A,-737280,0.0,0.0,91,0.00,,,0.01,Wunderground v.1.12,2013-05-25 09:39:00,
2013-05-25 05:40:00,41.3,38.9,29.94,SW,222,0.0,0.0,91,0.00,,,0.00,Wunderground v.1.12,2013-05-25 09:40:00,
2013-05-25 05:44:00,41.5,38.8,29.95,N/A,-737280,0.0,0.0,90,0.00,,,0.01,Wunderground v.1.12,2013-05-25 09:44:00,
2013-05-25 05:45:00,41.3,38.9,29.95,SW,220,0.0,0.0,91,0.00,,,0.00,Wunderground v.1.12,2013-05-25 09:45:00,
2013-05-25 05:49:00,41.5,38.8,29.95,N/A,-737280,0.0,0.0,90,0.00,,,0.01,Wunderground v.1.12,2013-05-25 09:49:00,
2013-05-25 05:50:00,41.3,38.9,29.95,SW,221,0.0,0.0,91,0.00,,,0.00,Wunderground v.1.12,2013-05-25 09:50:00,
2013-05-25 05:54:00,41.5,38.8,29.95,N/A,-737280,0.0,0.0,90,0.00,,,0.01,Wunderground v.1.12,2013-05-25 09:54:00,
2013-05-25 05:55:00,41.5,38.8,29.95,SW,221,0.0,0.0,90,0.00,,,0.00,Wunderground v.1.12,2013-05-25 09:55:00,
2013-05-25 05:59:00,41.5,39.1,29.95,N/A,-737280,0.0,0.0,91,0.00,,,0.01,Wunderground v.1.12,2013-05-25 09:59:00,
2013-05-25 06:00:00,41.5,38.8,29.95,SW,221,0.0,0.0,90,0.00,,,0.00,Wunderground v.1.12,2013-05-25 10:00:00,
2013-05-25 06:04:00,41.6,38.9,29.95,N/A,-737280,0.0,0.0,90,0.00,,,0.01,Wunderground v.1.12,2013-05-25 10:04:00,
2013-05-25 06:05:00,41.5,38.8,29.95,SW,221,0.0,0.0,90,0.00,,,0.00,Wunderground v.1.12,2013-05-25 10:05:00,
2013-05-25 06:09:00,41.6,39.2,29.95,N/A,-737280,0.0,0.0,91,0.00,,,0.01,Wunderground v.1.12,2013-05-25 10:09:00,
2013-05-25 06:10:00,41.5,38.8,29.95,SW,221,0.0,0.0,90,0.00,,,0.00,Wunderground v.1.12,2013-05-25 10:10:00,
2013-05-25 06:14:00,41.6,39.2,29.96,N/A,-737280,0.0,0.0,91,0.00,,,0.01,Wunderground v.1.12,2013-05-25 10:14:00,
2013-05-25 06:15:00,41.5,38.8,29.95,SW,221,0.0,0.0,90,0.00,,,0.00,Wunderground v.1.12,2013-05-25 10:15:00,
2013-05-25 06:19:00,41.8,39.4,29.96,N/A,-737280,0.0,0.0,91,0.00,,,0.01,Wunderground v.1.12,2013-05-25 10:19:00,
2013-05-25 06:20:00,41.6,38.9,29.95,SW,221,0.0,0.0,90,0.00,,,0.00,Wunderground v.1.12,2013-05-25 10:20:00,
2013-05-25 06:24:00,41.8,39.4,29.96,N/A,-737280,0.0,0.0,91,0.00,,,0.01,Wunderground v.1.12,2013-05-25 10:24:00,
2013-05-25 06:25:00,41.6,39.2,29.95,SW,221,0.0,0.0,91,0.00,,,0.00,Wunderground v.1.12,2013-05-25 10:25:00,
2013-05-25 06:29:00,41.9,39.5,29.96,N/A,-737280,0.0,0.0,91,0.00,,,0.01,Wunderground v.1.12,2013-05-25 10:29:00,
2013-05-25 06:30:00,41.8,39.4,29.96,SW,221,0.0,0.0,91,0.00,,,0.00,Wunderground v.1.12,2013-05-25 10:30:00,
2013-05-25 06:34:00,41.9,39.2,29.96,N/A,-737280,0.0,0.0,90,0.00,,,0.01,Wunderground v.1.12,2013-05-25 10:34:00,
2013-05-25 06:35:00,41.8,39.4,29.96,SW,221,0.0,0.0,91,0.00,,,0.00,Wunderground v.1.12,2013-05-25 10:35:00,
2013-05-25 06:39:00,42.1,39.1,29.96,N/A,-737280,0.0,0.0,89,0.00,,,0.01,Wunderground v.1.12,2013-05-25 10:39:00,
2013-05-25 06:40:00,41.8,39.4,29.96,SW,221,0.0,0.0,91,0.00,,,0.00,Wunderground v.1.12,2013-05-25 10:40:00,
2013-05-25 06:44:00,42.2,38.9,29.95,N/A,-737280,0.0,0.0,88,0.00,,,0.01,Wunderground v.1.12,2013-05-25 10:44:00,
2013-05-25 06:46:00,41.9,39.2,29.96,SW,221,0.0,0.0,90,0.00,,,0.00,Wunderground v.1.12,2013-05-25 10:46:00,
2013-05-25 06:49:00,42.3,38.7,29.95,N/A,-737280,0.0,0.0,87,0.00,,,0.01,Wunderground v.1.12,2013-05-25 10:49:00,
2013-05-25 06:51:00,42.1,39.4,29.96,SW,224,0.0,0.0,90,0.00,,,0.00,Wunderground v.1.12,2013-05-25 10:51:00,
2013-05-25 06:54:00,42.3,38.7,29.95,N/A,-737280,0.0,0.0,87,0.00,,,0.01,Wunderground v.1.12,2013-05-25 10:54:00,
2013-05-25 06:56:00,42.2,38.9,29.96,SW,221,0.0,0.0,88,0.00,,,0.00,Wunderground v.1.12,2013-05-25 10:56:00,
2013-05-25 06:59:00,42.6,38.7,29.95,N/A,-737280,0.0,0.0,86,0.00,,,0.01,Wunderground v.1.12,2013-05-25 10:59:00,
2013-05-25 07:01:00,42.3,39.0,29.95,SW,221,0.0,0.0,88,0.00,,,0.00,Wunderground v.1.12,2013-05-25 11:01:00,
2013-05-25 07:04:00,42.8,39.2,29.95,N/A,-737280,0.0,0.0,87,0.00,,,0.01,Wunderground v.1.12,2013-05-25 11:04:00,
2013-05-25 07:06:00,42.5,39.2,29.95,SW,221,0.0,0.0,88,0.00,,,0.00,Wunderground v.1.12,2013-05-25 11:06:00,
2013-05-25 07:09:00,42.9,39.3,29.95,N/A,-737280,0.0,0.0,87,0.00,,,0.01,Wunderground v.1.12,2013-05-25 11:09:00,
2013-05-25 07:11:00,42.6,38.4,29.95,SW,223,0.0,0.0,85,0.00,,,0.00,Wunderground v.1.12,2013-05-25 11:11:00,
2013-05-25 07:14:00,42.9,39.0,29.96,N/A,-737280,0.0,0.0,86,0.00,,,0.01,Wunderground v.1.12,2013-05-25 11:14:00,
2013-05-25 07:16:00,42.8,38.9,29.95,SW,221,0.0,0.0,86,0.00,,,0.00,Wunderground v.1.12,2013-05-25 11:16:00,
2013-05-25 07:19:00,43.1,38.9,29.96,N/A,-737280,0.0,0.0,85,0.00,,,0.01,Wunderground v.1.12,2013-05-25 11:19:00,
2013-05-25 07:21:00,42.8,38.9,29.95,SW,221,0.0,0.0,86,0.00,,,0.00,Wunderground v.1.12,2013-05-25 11:21:00,
2013-05-25 07:24:00,43.1,38.6,29.96,N/A,-737280,0.0,0.0,84,0.00,,,0.01,Wunderground v.1.12,2013-05-25 11:24:00,
2013-05-25 07:26:00,42.9,39.0,29.95,SW,221,0.0,0.0,86,0.00,,,0.00,Wunderground v.1.12,2013-05-25 11:26:00,
2013-05-25 07:29:00,43.2,38.7,29.96,N/A,-737280,0.0,0.0,84,0.00,,,0.01,Wunderground v.1.12,2013-05-25 11:29:00,
2013-05-25 07:31:00,43.1,39.2,29.96,SW,221,0.0,0.0,86,0.00,,,0.00,Wunderground v.1.12,2013-05-25 11:31:00,
2013-05-25 07:34:00,43.3,39.1,29.96,N/A,-737280,0.0,0.0,85,0.00,,,0.01,Wunderground v.1.12,2013-05-25 11:34:00,
2013-05-25 07:36:00,43.1,38.9,29.96,SW,221,0.0,0.0,85,0.00,,,0.00,Wunderground v.1.12,2013-05-25 11:36:00,
2013-05-25 07:39:00,43.3,38.5,29.96,N/A,-737280,0.0,0.0,83,0.00,,,0.01,Wunderground v.1.12,2013-05-25 11:39:00,
2013-05-25 07:41:00,43.2,38.7,29.96,SW,222,0.0,0.0,84,0.00,,,0.00,Wunderground v.1.12,2013-05-25 11:41:00,
2013-05-25 07:44:00,43.5,38.4,29.97,N/A,-737280,0.0,0.0,82,0.00,,,0.01,Wunderground v.1.12,2013-05-25 11:44:00,
2013-05-25 07:46:00,43.3,38.8,29.96,SW,220,0.0,0.0,84,0.00,,,0.00,Wunderground v.1.12,2013-05-25 11:46:00,
2013-05-25 07:49:00,43.6,38.5,29.97,N/A,-737280,0.0,0.0,82,0.00,,,0.01,Wunderground v.1.12,2013-05-25 11:49:00,
2013-05-25 07:52:00,43.3,38.5,29.96,SW,223,0.0,0.0,83,0.00,,,0.00,Wunderground v.1.12,2013-05-25 11:52:00,
2013-05-25 07:54:00,43.8,38.3,29.97,N/A,-737280,0.0,0.0,81,0.00,,,0.01,Wunderground v.1.12,2013-05-25 11:54:00,
2013-05-25 07:57:00,43.5,38.4,29.96,SW,221,0.0,0.0,82,0.00,,,0.00,Wunderground v.1.12,2013-05-25 11:57:00,
2013-05-25 07:59:00,43.9,38.4,29.97,N/A,-737280,0.0,0.0,81,0.00,,,0.01,Wunderground v.1.12,2013-05-25 11:59:00,
2013-05-25 08:02:00,43.6,38.5,29.97,SW,222,0.0,0.0,82,0.00,,,0.00,Wunderground v.1.12,2013-05-25 12:02:00,
2013-05-25 08:04:00,43.9,38.8,29.97,N/A,-737280,0.0,0.0,82,0.00,,,0.01,Wunderground v.1.12,2013-05-25 12:04:00,
2013-05-25 08:07:00,43.8,38.3,29.97,SW,221,0.0,0.0,81,0.00,,,0.00,Wunderground v.1.12,2013-05-25 12:07:00,
2013-05-25 08:09:00,44.1,38.6,29.97,N/A,-737280,0.0,0.0,81,0.00,,,0.01,Wunderground v.1.12,2013-05-25 12:09:00,
2013-05-25 08:12:00,43.9,38.4,29.97,WSW,240,0.0,0.0,81,0.00,,,0.00,Wunderground v.1.12,2013-05-25 12:12:00,
2013-05-25 08:14:00,44.5,38.7,29.97,N/A,-737280,0.0,0.0,80,0.00,,,0.01,Wunderground v.1.12,2013-05-25 12:14:00,
2013-05-25 08:17:00,43.9,38.4,29.97,WSW,238,0.0,0.0,81,0.00,,,0.00,Wunderground v.1.12,2013-05-25 12:17:00,
2013-05-25 08:19:00,44.5,38.4,29.97,N/A,-737280,0.0,0.0,79,0.00,,,0.01,Wunderground v.1.12,2013-05-25 12:19:00,
2013-05-25 08:22:00,44.1,38.6,29.97,SW,234,0.0,0.0,81,0.00,,,0.00,Wunderground v.1.12,2013-05-25 12:22:00,
2013-05-25 08:24:00,44.5,38.4,29.97,N/A,-737280,0.0,0.0,79,0.00,,,0.01,Wunderground v.1.12,2013-05-25 12:24:00,
2013-05-25 08:27:00,44.5,38.7,29.97,SW,232,0.0,0.0,80,0.00,,,0.00,Wunderground v.1.12,2013-05-25 12:27:00,
2013-05-25 08:29:00,44.6,38.5,29.97,N/A,-737280,0.0,0.0,79,0.00,,,0.01,Wunderground v.1.12,2013-05-25 12:29:00,
2013-05-25 08:32:00,44.5,38.4,29.97,SW,234,0.0,0.0,79,0.00,,,0.00,Wunderground v.1.12,2013-05-25 12:32:00,
2013-05-25 08:34:00,44.9,38.8,29.97,N/A,-737280,0.0,0.0,79,0.00,,,0.01,Wunderground v.1.12,2013-05-25 12:34:00,
2013-05-25 08:37:00,44.5,38.4,29.97,SW,232,0.0,0.0,79,0.00,,,0.00,Wunderground v.1.12,2013-05-25 12:37:00,
2013-05-25 08:39:00,45.2,38.1,29.97,N/A,-737280,0.0,0.0,76,0.00,,,0.01,Wunderground v.1.12,2013-05-25 12:39:00,
2013-05-25 08:42:00,44.6,38.5,29.97,SW,231,0.0,0.0,79,0.00,,,0.00,Wunderground v.1.12,2013-05-25 12:42:00,
2013-05-25 08:44:00,45.5,38.0,29.98,N/A,-737280,0.0,0.0,75,0.00,,,0.01,Wunderground v.1.12,2013-05-25 12:44:00,
2013-05-25 08:47:00,44.9,39.1,29.97,SW,234,0.0,0.0,80,0.00,,,0.00,Wunderground v.1.12,2013-05-25 12:47:00,
2013-05-25 08:49:00,45.8,39.0,29.98,N/A,-737280,0.0,0.0,77,0.00,,,0.01,Wunderground v.1.12,2013-05-25 12:49:00,
2013-05-25 08:53:00,45.2,38.1,29.97,SW,236,0.0,0.0,76,0.00,,,0.00,Wunderground v.1.12,2013-05-25 12:53:00,
2013-05-25 08:54:00,46.1,39.0,29.98,N/A,-737280,0.0,0.0,76,0.00,,,0.01,Wunderground v.1.12,2013-05-25 12:54:00,
2013-05-25 08:58:00,45.5,38.0,29.98,WSW,240,0.0,0.0,75,0.00,,,0.00,Wunderground v.1.12,2013-05-25 12:58:00,
2013-05-25 08:59:00,46.2,38.7,29.97,N/A,-737280,0.0,0.0,75,0.00,,,0.01,Wunderground v.1.12,2013-05-25 12:59:00,
2013-05-25 09:03:00,45.8,39.0,29.98,WSW,238,0.0,0.0,77,0.00,,,0.00,Wunderground v.1.12,2013-05-25 13:03:00,
2013-05-25 09:04:00,46.4,38.9,29.97,N/A,-737280,0.0,0.0,75,0.00,,,0.01,Wunderground v.1.12,2013-05-25 13:04:00,
2013-05-25 09:08:00,46.1,39.0,29.98,WSW,237,0.0,0.0,76,0.00,,,0.00,Wunderground v.1.12,2013-05-25 13:08:00,
2013-05-25 09:09:00,47.0,40.2,29.97,N/A,-737280,0.0,0.0,77,0.00,,,0.01,Wunderground v.1.12,2013-05-25 13:09:00,
2013-05-25 09:13:00,46.2,38.7,29.97,SW,233,0.0,0.0,75,0.00,,,0.00,Wunderground v.1.12,2013-05-25 13:13:00,
2013-05-25 09:14:00,47.3,39.8,29.98,N/A,-737280,0.0,0.0,75,0.00,,,0.01,Wunderground v.1.12,2013-05-25 13:14:00,
2013-05-25 09:18:00,46.4,38.9,29.97,SW,233,0.0,0.0,75,0.00,,,0.00,Wunderground v.1.12,2013-05-25 13:18:00,
2013-05-25 09:19:00,47.3,38.7,29.98,N/A,-737280,0.0,0.0,72,0.00,,,0.01,Wunderground v.1.12,2013-05-25 13:19:00,
2013-05-25 09:23:00,47.0,40.2,29.97,SW,233,0.0,0.0,77,0.00,,,0.00,Wunderground v.1.12,2013-05-25 13:23:00,
2013-05-25 09:24:00,47.6,39.4,29.98,N/A,-737280,0.0,0.0,73,0.00,,,0.01,Wunderground v.1.12,2013-05-25 13:24:00,
2013-05-25 09:28:00,47.3,39.8,29.98,SW,231,0.0,0.0,75,0.00,,,0.00,Wunderground v.1.12,2013-05-25 13:28:00,
2013-05-25 09:29:00,48.2,39.9,29.97,N/A,-737280,0.0,0.0,73,0.00,,,0.01,Wunderground v.1.12,2013-05-25 13:29:00,
2013-05-25 09:33:00,47.3,38.7,29.98,SW,233,0.0,0.0,72,0.00,,,0.00,Wunderground v.1.12,2013-05-25 13:33:00,
2013-05-25 09:34:00,48.3,38.6,29.97,N/A,-737280,0.0,0.0,69,0.00,,,0.01,Wunderground v.1.12,2013-05-25 13:34:00,
2013-05-25 09:38:00,47.6,39.4,29.98,SW,230,0.0,0.0,73,0.00,,,0.00,Wunderground v.1.12,2013-05-25 13:38:00,
2013-05-25 09:39:00,48.6,39.3,29.97,N/A,-737280,0.0,0.0,70,0.00,,,0.01,Wunderground v.1.12,2013-05-25 13:39:00,
2013-05-25 09:43:00,48.2,39.9,29.97,SW,230,0.0,0.0,73,0.00,,,0.00,Wunderground v.1.12,2013-05-25 13:43:00,
2013-05-25 09:44:00,49.2,38.7,29.97,N/A,-737280,0.0,0.0,67,0.00,,,0.01,Wunderground v.1.12,2013-05-25 13:44:00,
2013-05-25 09:48:00,48.5,38.8,29.97,SW,230,0.0,0.0,69,0.00,,,0.00,Wunderground v.1.12,2013-05-25 13:48:00,
2013-05-25 09:49:00,49.1,37.8,29.97,N/A,-737280,0.0,0.0,65,0.00,,,0.01,Wunderground v.1.12,2013-05-25 13:49:00,
2013-05-25 09:53:00,48.8,39.4,29.97,SW,231,0.0,0.0,70,0.00,,,0.00,Wunderground v.1.12,2013-05-25 13:53:00,
2013-05-25 09:54:00,49.4,40.0,29.97,N/A,-737280,0.0,0.0,70,0.00,,,0.01,Wunderground v.1.12,2013-05-25 13:54:00,
2013-05-25 09:58:00,49.2,38.7,29.97,SW,229,0.0,0.0,67,0.00,,,0.00,Wunderground v.1.12,2013-05-25 13:58:00,
2013-05-25 09:59:00,49.4,36.9,29.96,N/A,-737280,0.0,0.0,62,0.00,,,0.01,Wunderground v.1.12,2013-05-25 13:59:00,
2013-05-25 10:03:00,49.2,37.9,29.97,SW,234,0.0,0.0,65,0.00,,,0.00,Wunderground v.1.12,2013-05-25 14:03:00,
2013-05-25 10:04:00,49.8,39.3,29.96,N/A,-737280,0.0,0.0,67,0.00,,,0.01,Wunderground v.1.12,2013-05-25 14:04:00,
2013-05-25 10:08:00,49.4,38.9,29.97,SW,234,0.0,0.0,67,0.00,,,0.00,Wunderground v.1.12,2013-05-25 14:08:00,
2013-05-25 10:09:00,49.8,37.7,29.96,N/A,-737280,0.0,0.0,63,0.00,,,0.01,Wunderground v.1.12,2013-05-25 14:09:00,
2013-05-25 10:13:00,49.4,38.1,29.96,SW,234,0.0,0.0,65,0.00,,,0.00,Wunderground v.1.12,2013-05-25 14:13:00,
2013-05-25 10:18:00,49.8,38.5,29.96,SW,234,0.0,0.0,65,0.00,,,0.00,Wunderground v.1.12,2013-05-25 14:18:00,
2013-05-25 10:19:00,50.7,39.4,29.97,N/A,-737280,0.0,0.0,65,0.00,,,0.01,Wunderground v.1.12,2013-05-25 14:19:00,
2013-05-25 10:24:00,49.9,38.2,29.96,SW,232,0.0,0.0,64,0.00,,,0.00,Wunderground v.1.12,2013-05-25 14:24:00,
2013-05-25 10:29:00,50.2,38.1,29.97,SW,230,0.0,0.0,63,0.00,,,0.00,Wunderground v.1.12,2013-05-25 14:29:00,
2013-05-25 10:34:00,50.8,39.1,29.97,SW,232,0.0,0.0,64,0.00,,,0.00,Wunderground v.1.12,2013-05-25 14:34:00,
2013-05-25 10:39:00,51.1,38.9,29.97,SW,232,0.0,0.0,63,0.00,,,0.00,Wunderground v.1.12,2013-05-25 14:39:00,
2013-05-25 10:44:00,52.2,40.4,29.97,SW,232,0.0,0.0,64,0.00,,,0.00,Wunderground v.1.12,2013-05-25 14:44:00,
2013-05-25 10:49:00,51.3,37.9,29.98,N/A,-737280,0.0,0.0,60,0.00,,,0.01,Wunderground v.1.12,2013-05-25 14:49:00,
2013-05-25 10:50:00,52.5,41.1,29.97,SW,231,0.0,0.0,65,0.00,,,0.00,Wunderground v.1.12,2013-05-25 14:50:00,
2013-05-25 10:54:00,51.4,38.8,29.98,N/A,-737280,0.0,0.0,62,0.00,,,0.01,Wunderground v.1.12,2013-05-25 14:54:00,
2013-05-25 10:55:00,52.2,39.6,29.97,SW,232,0.0,0.0,62,0.00,,,0.00,Wunderground v.1.12,2013-05-25 14:55:00,
2013-05-25 10:59:00,51.9,39.3,29.97,N/A,-737280,0.0,0.0,62,0.00,,,0.01,Wunderground v.1.12,2013-05-25 14:59:00,
2013-05-25 11:00:00,51.4,38.4,29.98,SW,229,0.0,0.0,61,0.00,,,0.00,Wunderground v.1.12,2013-05-25 15:00:00,
2013-05-25 11:04:00,51.7,37.4,29.97,N/A,-737280,0.0,0.0,58,0.00,,,0.01,Wunderground v.1.12,2013-05-25 15:04:00,
2013-05-25 11:05:00,51.3,37.4,29.98,SW,233,0.0,0.0,59,0.00,,,0.00,Wunderground v.1.12,2013-05-25 15:05:00,
2013-05-25 11:09:00,51.7,36.9,29.97,N/A,-737280,0.0,0.0,57,0.00,,,0.01,Wunderground v.1.12,2013-05-25 15:09:00,
2013-05-25 11:10:00,51.4,37.5,29.98,SW,231,0.0,0.0,59,0.00,,,0.00,Wunderground v.1.12,2013-05-25 15:10:00,
2013-05-25 11:14:00,52.0,38.1,29.97,N/A,-737280,0.0,0.0,59,0.00,,,0.01,Wunderground v.1.12,2013-05-25 15:14:00,
2013-05-25 11:15:00,51.9,38.4,29.97,SW,223,0.0,0.0,60,0.00,,,0.00,Wunderground v.1.12,2013-05-25 15:15:00,
2013-05-25 11:19:00,52.8,38.9,29.97,N/A,-737280,0.0,0.0,59,0.00,,,0.01,Wunderground v.1.12,2013-05-25 15:19:00,
2013-05-25 11:20:00,51.7,38.7,29.97,SW,225,0.0,0.0,61,0.00,,,0.00,Wunderground v.1.12,2013-05-25 15:20:00,
2013-05-25 11:24:00,52.6,38.2,29.97,N/A,-737280,0.0,0.0,58,0.00,,,0.01,Wunderground v.1.12,2013-05-25 15:24:00,
2013-05-25 11:25:00,51.7,37.8,29.97,SW,225,0.0,0.0,59,0.00,,,0.00,Wunderground v.1.12,2013-05-25 15:25:00,
2013-05-25 11:29:00,52.8,38.4,29.97,N/A,-737280,0.0,0.0,58,0.01,,,0.01,Wunderground v.1.12,2013-05-25 15:29:00,
2013-05-25 11:30:00,52.5,38.1,29.97,SW,226,0.0,0.0,58,0.00,,,0.00,Wunderground v.1.12,2013-05-25 15:30:00,
2013-05-25 11:34:00,52.5,37.2,29.97,N/A,-737280,0.0,0.0,56,0.01,,,0.01,Wunderground v.1.12,2013-05-25 15:34:00,
2013-05-25 11:35:00,52.8,39.7,29.97,SW,227,0.0,0.0,61,0.00,,,0.00,Wunderground v.1.12,2013-05-25 15:35:00,
2013-05-25 11:40:00,52.6,38.2,29.97,SW,224,0.0,0.0,58,0.00,,,0.00,Wunderground v.1.12,2013-05-25 15:40:00,
2013-05-25 11:44:00,52.3,37.1,29.98,N/A,-737280,0.0,0.0,56,0.01,,,0.01,Wunderground v.1.12,2013-05-25 15:44:00,
2013-05-25 11:45:00,52.6,38.7,29.97,SW,225,0.0,0.0,59,0.00,,,0.01,Wunderground v.1.12,2013-05-25 15:45:00,
2013-05-25 11:49:00,52.3,37.1,29.98,N/A,-737280,0.0,0.0,56,0.01,,,0.01,Wunderground v.1.12,2013-05-25 15:49:00,
2013-05-25 11:50:00,52.3,38.0,29.97,SW,225,0.0,0.0,58,0.00,,,0.01,Wunderground v.1.12,2013-05-25 15:50:00,
2013-05-25 11:54:00,52.3,37.1,29.98,N/A,-737280,0.0,0.0,56,0.01,,,0.01,Wunderground v.1.12,2013-05-25 15:54:00,
2013-05-25 11:56:00,52.3,38.4,29.97,SW,221,0.0,0.0,59,0.00,,,0.01,Wunderground v.1.12,2013-05-25 15:56:00,
2013-05-25 11:59:00,52.0,35.9,29.98,N/A,-737280,0.0,0.0,54,0.01,,,0.01,Wunderground v.1.12,2013-05-25 15:59:00,
2013-05-25 12:01:00,52.3,36.1,29.98,SW,219,0.0,0.0,54,0.00,,,0.01,Wunderground v.1.12,2013-05-25 16:01:00,
2013-05-25 12:04:00,52.0,36.3,29.98,N/A,-737280,0.0,0.0,55,0.01,,,0.01,Wunderground v.1.12,2013-05-25 16:04:00,
2013-05-25 12:06:00,52.3,37.1,29.98,SW,222,0.0,0.0,56,0.00,,,0.01,Wunderground v.1.12,2013-05-25 16:06:00,
2013-05-25 12:09:00,51.9,35.8,29.98,N/A,-737280,0.0,0.0,54,0.01,,,0.01,Wunderground v.1.12,2013-05-25 16:09:00,
2013-05-25 12:11:00,52.0,37.2,29.98,SW,218,0.0,0.0,57,0.00,,,0.01,Wunderground v.1.12,2013-05-25 16:11:00,
2013-05-25 12:14:00,51.9,36.2,29.98,N/A,-737280,0.0,0.0,55,0.01,,,0.01,Wunderground v.1.12,2013-05-25 16:14:00,
2013-05-25 12:16:00,52.0,37.2,29.98,SW,215,0.0,0.0,57,0.00,,,0.01,Wunderground v.1.12,2013-05-25 16:16:00,
2013-05-25 12:19:00,52.5,36.8,29.98,N/A,-737280,0.0,0.0,55,0.01,,,0.01,Wunderground v.1.12,2013-05-25 16:19:00,
2013-05-25 12:21:00,52.0,36.3,29.98,SW,221,0.0,0.0,55,0.00,,,0.01,Wunderground v.1.12,2013-05-25 16:21:00,
2013-05-25 12:24:00,53.6,36.9,29.98,N/A,-737280,0.0,0.0,53,0.01,,,0.01,Wunderground v.1.12,2013-05-25 16:24:00,
2013-05-25 12:26:00,51.9,36.2,29.98,SW,222,0.0,0.0,55,0.00,,,0.01,Wunderground v.1.12,2013-05-25 16:26:00,
2013-05-25 12:29:00,53.6,37.3,29.98,N/A,-737280,0.0,0.0,54,0.00,,,0.01,Wunderground v.1.12,2013-05-25 16:29:00,
2013-05-25 12:31:00,52.2,37.9,29.98,SW,219,0.0,0.0,58,0.00,,,0.01,Wunderground v.1.12,2013-05-25 16:31:00,
2013-05-25 12:34:00,53.6,38.3,29.98,N/A,-737280,0.0,0.0,56,0.00,,,0.01,Wunderground v.1.12,2013-05-25 16:34:00,
2013-05-25 12:36:00,53.3,37.1,29.98,SW,218,0.0,0.0,54,0.00,,,0.01,Wunderground v.1.12,2013-05-25 16:36:00,
2013-05-25 12:39:00,53.5,38.6,29.98,N/A,-737280,0.0,0.0,57,0.00,,,0.01,Wunderground v.1.12,2013-05-25 16:39:00,
2013-05-25 12:41:00,53.8,37.1,29.98,SSW,213,0.0,0.0,53,0.00,,,0.01,Wunderground v.1.12,2013-05-25 16:41:00,
2013-05-25 12:44:00,53.9,36.7,29.98,N/A,-737280,0.0,0.0,52,0.00,,,0.01,Wunderground v.1.12,2013-05-25 16:44:00,
2013-05-25 12:46:00,53.5,36.8,29.98,SW,217,0.0,0.0,53,0.00,,,0.01,Wunderground v.1.12,2013-05-25 16:46:00,
2013-05-25 12:49:00,53.6,36.9,29.98,N/A,-737280,0.0,0.0,53,0.00,,,0.01,Wunderground v.1.12,2013-05-25 16:49:00,
2013-05-25 12:51:00,53.2,35.5,29.98,SW,225,0.0,0.0,51,0.00,,,0.01,Wunderground v.1.12,2013-05-25 16:51:00,
2013-05-25 12:54:00,53.1,35.4,29.98,N/A,-737280,0.0,0.0,51,0.00,,,0.01,Wunderground v.1.12,2013-05-25 16:54:00,
2013-05-25 12:56:00,53.9,36.2,29.98,SSW,207,0.0,0.0,51,0.00,,,0.01,Wunderground v.1.12,2013-05-25 16:56:00,
2013-05-25 12:59:00,53.2,36.5,29.98,N/A,-737280,0.0,0.0,53,0.00,,,0.01,Wunderground v.1.12,2013-05-25 16:59:00,
2013-05-25 13:01:00,53.8,36.1,29.98,SSW,205,0.0,0.0,51,0.00,,,0.01,Wunderground v.1.12,2013-05-25 17:01:00,
2013-05-25 13:04:00,53.3,36.6,29.98,N/A,-737280,0.0,0.0,53,0.00,,,0.01,Wunderground v.1.12,2013-05-25 17:04:00,
2013-05-25 13:06:00,53.1,35.9,29.98,SW,221,0.0,0.0,52,0.00,,,0.01,Wunderground v.1.12,2013-05-25 17:06:00,
2013-05-25 13:09:00,53.2,37.0,29.98,N/A,-737280,0.0,0.0,54,0.00,,,0.01,Wunderground v.1.12,2013-05-25 17:09:00,
2013-05-25 13:11:00,53.1,36.4,29.98,SSW,208,0.0,0.0,53,0.00,,,0.01,Wunderground v.1.12,2013-05-25 17:11:00,
2013-05-25 13:14:00,52.9,35.2,29.98,N/A,-737280,0.0,0.0,51,0.00,,,0.01,Wunderground v.1.12,2013-05-25 17:14:00,
2013-05-25 13:17:00,53.3,37.5,29.98,SSW,212,0.0,0.0,55,0.00,,,0.01,Wunderground v.1.12,2013-05-25 17:17:00,
2013-05-25 13:19:00,52.6,36.4,29.98,N/A,-737280,0.0,0.0,54,0.00,,,0.01,Wunderground v.1.12,2013-05-25 17:19:00,
2013-05-25 13:22:00,53.2,36.0,29.98,SSW,210,0.0,0.0,52,0.00,,,0.01,Wunderground v.1.12,2013-05-25 17:22:00,
2013-05-25 13:24:00,52.2,36.0,29.98,N/A,-737280,0.0,0.0,54,0.00,,,0.01,Wunderground v.1.12,2013-05-25 17:24:00,
2013-05-25 13:27:00,53.1,35.9,29.98,SSW,211,0.0,0.0,52,0.00,,,0.01,Wunderground v.1.12,2013-05-25 17:27:00,
2013-05-25 13:29:00,52.0,35.4,29.98,N/A,-737280,0.0,0.0,53,0.00,,,0.01,Wunderground v.1.12,2013-05-25 17:29:00,
2013-05-25 13:32:00,52.6,35.9,29.98,SSW,204,0.0,0.0,53,0.00,,,0.01,Wunderground v.1.12,2013-05-25 17:32:00,
2013-05-25 13:34:00,52.5,37.2,29.98,N/A,-737280,0.0,0.0,56,0.00,,,0.01,Wunderground v.1.12,2013-05-25 17:34:00,
2013-05-25 13:37:00,52.2,36.0,29.98,SSW,207,0.0,0.0,54,0.00,,,0.01,Wunderground v.1.12,2013-05-25 17:37:00,
2013-05-25 13:39:00,52.8,37.1,29.98,N/A,-737280,0.0,0.0,55,0.00,,,0.01,Wunderground v.1.12,2013-05-25 17:39:00,
2013-05-25 13:42:00,52.0,35.4,29.98,SSW,208,0.0,0.0,53,0.00,,,0.01,Wunderground v.1.12,2013-05-25 17:42:00,
2013-05-25 13:44:00,52.9,35.7,29.97,N/A,-737280,0.0,0.0,52,0.00,,,0.01,Wunderground v.1.12,2013-05-25 17:44:00,
2013-05-25 13:47:00,52.3,37.5,29.98,SSW,207,0.0,0.0,57,0.00,,,0.01,Wunderground v.1.12,2013-05-25 17:47:00,
2013-05-25 13:49:00,53.1,36.9,29.97,N/A,-737280,0.0,0.0,54,0.00,,,0.01,Wunderground v.1.12,2013-05-25 17:49:00,
2013-05-25 13:52:00,52.8,37.1,29.98,SSW,210,0.0,0.0,55,0.00,,,0.01,Wunderground v.1.12,2013-05-25 17:52:00,
2013-05-25 13:54:00,53.1,34.9,29.97,N/A,-737280,0.0,0.0,50,0.00,,,0.01,Wunderground v.1.12,2013-05-25 17:54:00,
2013-05-25 13:57:00,52.9,37.2,29.97,SSW,210,0.0,0.0,55,0.00,,,0.01,Wunderground v.1.12,2013-05-25 17:57:00,
2013-05-25 13:59:00,52.9,35.2,29.98,N/A,-737280,0.0,0.0,51,0.00,,,0.01,Wunderground v.1.12,2013-05-25 17:59:00,
2013-05-25 14:02:00,53.1,36.9,29.97,SSW,208,0.0,0.0,54,0.00,,,0.01,Wunderground v.1.12,2013-05-25 18:02:00,
2013-05-25 14:04:00,52.8,34.7,29.98,N/A,-737280,0.0,0.0,50,0.00,,,0.01,Wunderground v.1.12,2013-05-25 18:04:00,
2013-05-25 14:07:00,53.2,35.0,29.97,SSW,206,0.0,0.0,50,0.00,,,0.01,Wunderground v.1.12,2013-05-25 18:07:00,
2013-05-25 14:09:00,52.8,35.2,29.98,SSW,203,0.0,1.0,51,0.00,,,0.01,Wunderground v.1.12,2013-05-25 18:09:00,
2013-05-25 14:12:00,52.9,35.2,29.98,SSW,212,0.0,0.0,51,0.00,,,0.01,Wunderground v.1.12,2013-05-25 18:12:00,
2013-05-25 14:14:00,52.9,36.7,29.98,N/A,-737280,0.0,0.0,54,0.00,,,0.01,Wunderground v.1.12,2013-05-25 18:14:00,
2013-05-25 14:18:00,52.6,34.5,29.98,SSW,212,0.0,0.0,50,0.00,,,0.01,Wunderground v.1.12,2013-05-25 18:18:00,
2013-05-25 14:19:00,52.6,35.9,29.98,N/A,-737280,0.0,0.0,53,0.00,,,0.01,Wunderground v.1.12,2013-05-25 18:19:00,
2013-05-25 14:23:00,52.8,35.2,29.98,SSW,207,0.0,0.0,51,0.00,,,0.01,Wunderground v.1.12,2013-05-25 18:23:00,
2013-05-25 14:24:00,52.5,36.8,29.98,N/A,-737280,0.0,0.0,55,0.00,,,0.01,Wunderground v.1.12,2013-05-25 18:24:00,
2013-05-25 14:28:00,52.9,36.7,29.98,SSW,206,0.0,0.0,54,0.00,,,0.01,Wunderground v.1.12,2013-05-25 18:28:00,
2013-05-25 14:29:00,52.2,35.1,29.98,SSW,203,0.0,1.0,52,0.00,,,0.01,Wunderground v.1.12,2013-05-25 18:29:00,
2013-05-25 14:33:00,52.6,36.4,29.98,SSW,207,0.0,0.0,54,0.00,,,0.01,Wunderground v.1.12,2013-05-25 18:33:00,
2013-05-25 14:34:00,52.5,35.4,29.98,N/A,-737280,0.0,0.0,52,0.00,,,0.01,Wunderground v.1.12,2013-05-25 18:34:00,
2013-05-25 14:38:00,52.5,36.8,29.98,SSW,205,0.0,0.0,55,0.00,,,0.01,Wunderground v.1.12,2013-05-25 18:38:00,
2013-05-25 14:39:00,52.9,36.7,29.98,N/A,-737280,0.0,0.0,54,0.00,,,0.01,Wunderground v.1.12,2013-05-25 18:39:00,
2013-05-25 14:43:00,52.2,35.1,29.98,SSW,213,0.0,0.0,52,0.00,,,0.01,Wunderground v.1.12,2013-05-25 18:43:00,
2013-05-25 14:44:00,52.9,35.2,29.98,N/A,-737280,0.0,0.0,51,0.00,,,0.01,Wunderground v.1.12,2013-05-25 18:44:00,
2013-05-25 14:48:00,52.5,35.4,29.98,SSW,213,0.0,0.0,52,0.00,,,0.01,Wunderground v.1.12,2013-05-25 18:48:00,
2013-05-25 14:49:00,52.6,34.5,29.98,N/A,-737280,0.0,0.0,50,0.00,,,0.01,Wunderground v.1.12,2013-05-25 18:49:00,
2013-05-25 14:53:00,52.9,36.7,29.98,SSW,211,0.0,0.0,54,0.00,,,0.01,Wunderground v.1.12,2013-05-25 18:53:00,
2013-05-25 14:54:00,52.6,34.0,29.98,SSW,203,0.0,1.0,49,0.00,,,0.01,Wunderground v.1.12,2013-05-25 18:54:00,
2013-05-25 14:58:00,52.9,35.2,29.98,SW,217,0.0,0.0,51,0.00,,,0.01,Wunderground v.1.12,2013-05-25 18:58:00,
2013-05-25 14:59:00,53.1,34.4,29.97,N/A,-737280,0.0,0.0,49,0.00,,,0.01,Wunderground v.1.12,2013-05-25 18:59:00,
2013-05-25 15:03:00,52.6,34.5,29.98,SSW,203,0.0,0.0,50,0.00,,,0.01,Wunderground v.1.12,2013-05-25 19:03:00,
2013-05-25 15:04:00,53.5,34.3,29.97,N/A,-737280,0.0,0.0,48,0.00,,,0.01,Wunderground v.1.12,2013-05-25 19:04:00,
2013-05-25 15:08:00,52.6,34.0,29.98,SSW,202,0.0,0.0,49,0.00,,,0.01,Wunderground v.1.12,2013-05-25 19:08:00,
2013-05-25 15:09:00,53.8,34.6,29.97,N/A,-737280,0.0,0.0,48,0.00,,,0.01,Wunderground v.1.12,2013-05-25 19:09:00,
2013-05-25 15:13:00,53.1,34.4,29.97,SSW,202,0.0,0.0,49,0.00,,,0.01,Wunderground v.1.12,2013-05-25 19:13:00,
2013-05-25 15:14:00,54.2,34.4,29.97,N/A,-737280,0.0,0.0,47,0.00,,,0.01,Wunderground v.1.12,2013-05-25 19:14:00,
2013-05-25 15:18:00,53.5,34.8,29.97,SSW,200,0.0,0.0,49,0.00,,,0.01,Wunderground v.1.12,2013-05-25 19:18:00,
2013-05-25 15:19:00,54.1,34.3,29.97,N/A,-737280,0.0,0.0,47,0.00,,,0.01,Wunderground v.1.12,2013-05-25 19:19:00,
2013-05-25 15:23:00,53.8,34.6,29.97,SSW,202,0.0,0.0,48,0.00,,,0.01,Wunderground v.1.12,2013-05-25 19:23:00,
2013-05-25 15:24:00,54.1,35.3,29.97,N/A,-737280,0.0,0.0,49,0.00,,,0.01,Wunderground v.1.12,2013-05-25 19:24:00,
2013-05-25 15:28:00,54.2,34.4,29.97,SSW,198,0.0,0.0,47,0.00,,,0.01,Wunderground v.1.12,2013-05-25 19:28:00,
2013-05-25 15:29:00,54.2,35.4,29.97,SSW,203,0.0,1.0,49,0.00,,,0.01,Wunderground v.1.12,2013-05-25 19:29:00,
2013-05-25 15:33:00,54.1,34.3,29.97,SSW,199,0.0,0.0,47,0.00,,,0.01,Wunderground v.1.12,2013-05-25 19:33:00,
2013-05-25 15:34:00,54.4,36.1,29.97,SSW,203,0.0,1.0,50,0.00,,,0.01,Wunderground v.1.12,2013-05-25 19:34:00,
2013-05-25 15:38:00,54.1,35.3,29.97,South,191,0.0,0.0,49,0.00,,,0.01,Wunderground v.1.12,2013-05-25 19:38:00,
2013-05-25 15:39:00,54.4,34.6,29.97,N/A,-737280,0.0,0.0,47,0.00,,,0.01,Wunderground v.1.12,2013-05-25 19:39:00,
2013-05-25 15:43:00,54.2,35.4,29.97,SSW,198,0.0,0.0,49,0.00,,,0.01,Wunderground v.1.12,2013-05-25 19:43:00,
2013-05-25 15:44:00,54.1,34.3,29.97,SSW,203,0.0,1.0,47,0.00,,,0.01,Wunderground v.1.12,2013-05-25 19:44:00,
2013-05-25 15:48:00,54.2,35.9,29.97,South,190,0.0,0.0,50,0.00,,,0.01,Wunderground v.1.12,2013-05-25 19:48:00,
2013-05-25 15:49:00,53.6,33.8,29.97,N/A,-737280,0.0,0.0,47,0.00,,,0.01,Wunderground v.1.12,2013-05-25 19:49:00,
2013-05-25 15:53:00,54.4,34.6,29.97,SSW,192,0.0,0.0,47,0.00,,,0.01,Wunderground v.1.12,2013-05-25 19:53:00,
2013-05-25 15:54:00,53.3,34.1,29.97,N/A,-737280,0.0,0.0,48,0.00,,,0.01,Wunderground v.1.12,2013-05-25 19:54:00,
2013-05-25 15:58:00,54.1,34.3,29.97,SSW,197,0.0,0.0,47,0.00,,,0.01,Wunderground v.1.12,2013-05-25 19:58:00,
2013-05-25 15:59:00,53.1,33.4,29.97,N/A,-737280,0.0,0.0,47,0.00,,,0.01,Wunderground v.1.12,2013-05-25 19:59:00,
2013-05-25 16:03:00,53.6,33.3,29.97,South,190,0.0,0.0,46,0.00,,,0.01,Wunderground v.1.12,2013-05-25 20:03:00,
2013-05-25 16:04:00,53.1,33.4,29.97,N/A,-737280,0.0,0.0,47,0.00,,,0.01,Wunderground v.1.12,2013-05-25 20:04:00,
2013-05-25 16:09:00,53.2,34.5,29.97,South,175,0.0,0.0,49,0.00,,,0.01,Wunderground v.1.12,2013-05-25 20:09:00,
2013-05-25 16:14:00,53.1,33.4,29.97,SSW,210,0.0,0.0,47,0.00,,,0.01,Wunderground v.1.12,2013-05-25 20:14:00,
2013-05-25 16:19:00,53.3,33.6,29.96,N/A,-737280,0.0,0.0,47,0.00,,,0.01,Wunderground v.1.12,2013-05-25 20:19:00,
2013-05-25 16:20:00,53.2,33.5,29.97,SSW,209,0.0,0.0,47,0.00,,,0.01,Wunderground v.1.12,2013-05-25 20:20:00,
2013-05-25 16:24:00,53.3,33.0,29.96,N/A,-737280,0.0,0.0,46,0.00,,,0.01,Wunderground v.1.12,2013-05-25 20:24:00,
2013-05-25 16:25:00,53.3,35.1,29.97,South,188,0.0,0.0,50,0.00,,,0.01,Wunderground v.1.12,2013-05-25 20:25:00,
2013-05-25 16:29:00,53.2,33.5,29.97,N/A,-737280,0.0,0.0,47,0.00,,,0.01,Wunderground v.1.12,2013-05-25 20:29:00,
2013-05-25 16:30:00,53.3,34.1,29.96,South,173,0.0,0.0,48,0.00,,,0.01,Wunderground v.1.12,2013-05-25 20:30:00,
2013-05-25 16:34:00,53.2,34.0,29.97,NNE,23,0.0,3.0,48,0.00,,,0.01,Wunderground v.1.12,2013-05-25 20:34:00,
2013-05-25 16:35:00,53.3,34.1,29.96,SSW,202,0.0,0.0,48,0.00,,,0.01,Wunderground v.1.12,2013-05-25 20:35:00,
2013-05-25 16:39:00,53.2,31.8,29.97,N/A,-737280,0.0,0.0,44,0.00,,,0.01,Wunderground v.1.12,2013-05-25 20:39:00,
2013-05-25 16:40:00,53.2,34.0,29.96,SSW,198,0.0,0.0,48,0.00,,,0.01,Wunderground v.1.12,2013-05-25 20:40:00,
2013-05-25 16:44:00,53.5,33.2,29.98,N/A,-737280,0.0,0.0,46,0.00,,,0.01,Wunderground v.1.12,2013-05-25 20:44:00,
2013-05-25 16:45:00,53.2,34.5,29.97,NE,41,0.0,3.0,49,0.00,,,0.01,Wunderground v.1.12,2013-05-25 20:45:00,
2013-05-25 16:49:00,53.8,32.9,29.98,N/A,-737280,0.0,0.0,45,0.00,,,0.01,Wunderground v.1.12,2013-05-25 20:49:00,
2013-05-25 16:50:00,53.2,33.5,29.97,WNW,286,0.0,0.0,47,0.00,,,0.01,Wunderground v.1.12,2013-05-25 20:50:00,
2013-05-25 16:54:00,54.2,33.3,29.98,N/A,-737280,0.0,0.0,45,0.00,,,0.01,Wunderground v.1.12,2013-05-25 20:54:00,
2013-05-25 16:55:00,53.2,32.9,29.97,WNW,292,0.0,0.0,46,0.00,,,0.01,Wunderground v.1.12,2013-05-25 20:55:00,
2013-05-25 16:59:00,54.1,33.2,29.97,N/A,-737280,0.0,0.0,45,0.00,,,0.01,Wunderground v.1.12,2013-05-25 20:59:00,
2013-05-25 17:00:00,53.6,33.8,29.98,North,350,0.0,0.0,47,0.00,,,0.01,Wunderground v.1.12,2013-05-25 21:00:00,
2013-05-25 17:04:00,53.9,32.5,29.97,N/A,-737280,0.0,0.0,44,0.00,,,0.01,Wunderground v.1.12,2013-05-25 21:04:00,
2013-05-25 17:05:00,54.1,33.8,29.98,WNW,288,0.0,0.0,46,0.00,,,0.01,Wunderground v.1.12,2013-05-25 21:05:00,
2013-05-25 17:09:00,53.5,32.1,29.97,N/A,-737280,0.0,0.0,44,0.00,,,0.01,Wunderground v.1.12,2013-05-25 21:09:00,
2013-05-25 17:10:00,54.2,34.9,29.98,West,261,0.0,0.0,48,0.00,,,0.01,Wunderground v.1.12,2013-05-25 21:10:00,
2013-05-25 17:14:00,53.2,32.9,29.98,N/A,-737280,0.0,0.0,46,0.00,,,0.01,Wunderground v.1.12,2013-05-25 21:14:00,
2013-05-25 17:15:00,54.1,33.8,29.97,NNE,22,0.0,0.0,46,0.00,,,0.01,Wunderground v.1.12,2013-05-25 21:15:00,
2013-05-25 17:19:00,53.2,31.8,29.98,N/A,-737280,0.0,0.0,44,0.00,,,0.01,Wunderground v.1.12,2013-05-25 21:19:00,
2013-05-25 17:20:00,53.6,31.6,29.97,WNW,286,0.0,0.0,43,0.00,,,0.01,Wunderground v.1.12,2013-05-25 21:20:00,
2013-05-25 17:24:00,53.2,32.9,29.98,N/A,-737280,0.0,0.0,46,0.00,,,0.01,Wunderground v.1.12,2013-05-25 21:24:00,
2013-05-25 17:26:00,53.3,32.5,29.97,SSW,203,0.0,0.0,45,0.00,,,0.01,Wunderground v.1.12,2013-05-25 21:26:00,
2013-05-25 17:29:00,52.9,33.7,29.99,N/A,-737280,0.0,0.0,48,0.00,,,0.01,Wunderground v.1.12,2013-05-25 21:29:00,
2013-05-25 17:31:00,53.2,34.0,29.98,South,186,0.0,0.0,48,0.00,,,0.01,Wunderground v.1.12,2013-05-25 21:31:00,
2013-05-25 17:34:00,52.8,33.6,29.99,N/A,-737280,0.0,0.0,48,0.00,,,0.01,Wunderground v.1.12,2013-05-25 21:34:00,
2013-05-25 17:36:00,53.2,32.9,29.98,NNW,340,0.0,0.0,46,0.00,,,0.01,Wunderground v.1.12,2013-05-25 21:36:00,
2013-05-25 17:39:00,52.8,34.2,29.99,N/A,-737280,0.0,0.0,49,0.00,,,0.01,Wunderground v.1.12,2013-05-25 21:39:00,
2013-05-25 17:41:00,53.1,32.8,29.98,SW,233,0.0,0.0,46,0.00,,,0.01,Wunderground v.1.12,2013-05-25 21:41:00,
2013-05-25 17:44:00,52.6,31.8,29.99,N/A,-737280,0.0,0.0,45,0.00,,,0.01,Wunderground v.1.12,2013-05-25 21:44:00,
2013-05-25 17:46:00,52.8,32.6,29.99,ESE,103,0.0,0.0,46,0.00,,,0.01,Wunderground v.1.12,2013-05-25 21:46:00,
2013-05-25 17:49:00,52.5,32.8,29.99,N/A,-737280,0.0,0.0,47,0.00,,,0.01,Wunderground v.1.12,2013-05-25 21:49:00,
2013-05-25 17:51:00,52.6,32.9,29.99,NW,305,0.0,0.0,47,0.00,,,0.01,Wunderground v.1.12,2013-05-25 21:51:00,
2013-05-25 17:54:00,52.3,34.2,29.99,N/A,-737280,0.0,0.0,50,0.00,,,0.01,Wunderground v.1.12,2013-05-25 21:54:00,
2013-05-25 17:56:00,52.8,34.2,29.99,WSW,256,0.0,0.0,49,0.00,,,0.01,Wunderground v.1.12,2013-05-25 21:56:00,
2013-05-25 17:59:00,52.2,32.0,29.99,N/A,-737280,0.0,0.0,46,0.00,,,0.01,Wunderground v.1.12,2013-05-25 21:59:00,
2013-05-25 18:01:00,52.5,32.3,29.99,West,273,0.0,0.0,46,0.00,,,0.01,Wunderground v.1.12,2013-05-25 22:01:00,
2013-05-25 18:04:00,52.0,32.4,29.99,N/A,-737280,0.0,0.0,47,0.00,,,0.01,Wunderground v.1.12,2013-05-25 22:04:00,
2013-05-25 18:06:00,52.3,34.2,29.99,WNW,296,0.0,0.0,50,0.00,,,0.01,Wunderground v.1.12,2013-05-25 22:06:00,
2013-05-25 18:09:00,51.9,31.7,29.99,N/A,-737280,0.0,0.0,46,0.00,,,0.01,Wunderground v.1.12,2013-05-25 22:09:00,
2013-05-25 18:11:00,52.2,32.0,29.99,West,278,0.0,0.0,46,0.00,,,0.01,Wunderground v.1.12,2013-05-25 22:11:00,
2013-05-25 18:14:00,51.9,32.3,30.00,N/A,-737280,0.0,0.0,47,0.00,,,0.01,Wunderground v.1.12,2013-05-25 22:14:00,
2013-05-25 18:16:00,52.0,32.4,29.99,West,272,0.0,0.0,47,0.00,,,0.01,Wunderground v.1.12,2013-05-25 22:16:00,
2013-05-25 18:19:00,51.7,31.6,30.00,N/A,-737280,0.0,0.0,46,0.00,,,0.01,Wunderground v.1.12,2013-05-25 22:19:00,
2013-05-25 18:21:00,51.9,32.3,29.99,NW,322,0.0,0.0,47,0.00,,,0.01,Wunderground v.1.12,2013-05-25 22:21:00,
2013-05-25 18:24:00,51.6,31.5,30.00,NNW,338,0.0,1.0,46,0.00,,,0.01,Wunderground v.1.12,2013-05-25 22:24:00,
2013-05-25 18:26:00,51.9,31.7,29.99,WNW,292,0.0,0.0,46,0.00,,,0.01,Wunderground v.1.12,2013-05-25 22:26:00,
2013-05-25 18:29:00,51.4,32.9,30.00,N/A,-737280,0.0,0.0,49,0.00,,,0.01,Wunderground v.1.12,2013-05-25 22:29:00,
2013-05-25 18:31:00,51.7,31.6,30.00,West,261,0.0,0.0,46,0.00,,,0.01,Wunderground v.1.12,2013-05-25 22:31:00,
2013-05-25 18:34:00,51.3,32.8,30.00,N/A,-737280,0.0,0.0,49,0.00,,,0.01,Wunderground v.1.12,2013-05-25 22:34:00,
2013-05-25 18:36:00,51.6,31.5,30.00,WNW,298,0.0,0.0,46,0.00,,,0.01,Wunderground v.1.12,2013-05-25 22:36:00,
2013-05-25 18:39:00,51.3,32.3,30.00,N/A,-737280,0.0,0.0,48,0.00,,,0.01,Wunderground v.1.12,2013-05-25 22:39:00,
2013-05-25 18:42:00,51.6,32.5,30.00,West,263,0.0,0.0,48,0.00,,,0.01,Wunderground v.1.12,2013-05-25 22:42:00,
2013-05-25 18:44:00,51.3,33.3,30.01,N/A,-737280,0.0,0.0,50,0.00,,,0.01,Wunderground v.1.12,2013-05-25 22:44:00,
2013-05-25 18:47:00,51.4,32.3,30.00,North,9,0.0,0.0,48,0.00,,,0.01,Wunderground v.1.12,2013-05-25 22:47:00,
2013-05-25 18:49:00,51.3,32.3,30.01,WNW,293,1.0,6.0,48,0.00,,,0.01,Wunderground v.1.12,2013-05-25 22:49:00,
2013-05-25 18:52:00,51.3,31.7,30.00,West,277,0.0,0.0,47,0.00,,,0.01,Wunderground v.1.12,2013-05-25 22:52:00,
2013-05-25 18:54:00,51.4,32.3,30.01,WNW,293,0.0,2.0,48,0.00,,,0.01,Wunderground v.1.12,2013-05-25 22:54:00,
2013-05-25 18:57:00,51.3,32.3,30.00,SW,226,0.0,0.0,48,0.00,,,0.01,Wunderground v.1.12,2013-05-25 22:57:00,
2013-05-25 18:59:00,51.4,32.3,30.01,N/A,-737280,0.0,0.0,48,0.00,,,0.01,Wunderground v.1.12,2013-05-25 22:59:00,
2013-05-25 19:02:00,51.3,31.7,30.01,WSW,251,0.0,1.0,47,0.00,,,0.01,Wunderground v.1.12,2013-05-25 23:02:00,
2013-05-25 19:04:00,51.4,33.4,30.01,N/A,-737280,0.0,0.0,50,0.00,,,0.01,Wunderground v.1.12,2013-05-25 23:04:00,
2013-05-25 19:07:00,51.4,32.3,30.01,NNW,343,0.0,0.0,48,0.00,,,0.01,Wunderground v.1.12,2013-05-25 23:07:00,
2013-05-25 19:09:00,51.6,32.5,30.01,N/A,-737280,0.0,0.0,48,0.00,,,0.01,Wunderground v.1.12,2013-05-25 23:09:00,
2013-05-25 19:12:00,51.4,32.3,30.01,WSW,237,0.0,0.0,48,0.00,,,0.01,Wunderground v.1.12,2013-05-25 23:12:00,
2013-05-25 19:14:00,51.6,33.0,30.01,N/A,-737280,0.0,0.0,49,0.00,,,0.01,Wunderground v.1.12,2013-05-25 23:14:00,
2013-05-25 19:17:00,51.4,33.4,30.01,SW,221,0.0,0.0,50,0.00,,,0.01,Wunderground v.1.12,2013-05-25 23:17:00,
2013-05-25 19:19:00,51.7,32.1,30.01,N/A,-737280,0.0,0.0,47,0.00,,,0.01,Wunderground v.1.12,2013-05-25 23:19:00,
2013-05-25 19:22:00,51.6,32.5,30.01,WNW,303,0.0,0.0,48,0.00,,,0.01,Wunderground v.1.12,2013-05-25 23:22:00,
2013-05-25 19:24:00,51.6,31.5,30.01,WNW,293,0.0,4.0,46,0.00,,,0.01,Wunderground v.1.12,2013-05-25 23:24:00,
2013-05-25 19:27:00,51.6,33.0,30.01,WSW,258,0.0,0.0,49,0.00,,,0.01,Wunderground v.1.12,2013-05-25 23:27:00,
2013-05-25 19:29:00,51.6,31.5,30.01,WNW,293,1.0,4.0,46,0.00,,,0.01,Wunderground v.1.12,2013-05-25 23:29:00,
2013-05-25 19:32:00,51.7,32.1,30.01,WNW,302,0.0,0.0,47,0.00,,,0.01,Wunderground v.1.12,2013-05-25 23:32:00,
2013-05-25 19:34:00,51.7,31.6,30.01,West,270,1.0,7.0,46,0.00,,,0.01,Wunderground v.1.12,2013-05-25 23:34:00,
2013-05-25 19:37:00,51.6,32.5,30.01,WNW,288,0.0,3.0,48,0.00,,,0.01,Wunderground v.1.12,2013-05-25 23:37:00,
2013-05-25 19:39:00,51.6,33.0,30.01,NE,45,0.0,6.0,49,0.00,,,0.01,Wunderground v.1.12,2013-05-25 23:39:00,
2013-05-25 19:43:00,51.6,31.5,30.01,WNW,300,0.0,2.0,46,0.00,,,0.01,Wunderground v.1.12,2013-05-25 23:43:00,
2013-05-25 19:44:00,51.6,30.9,30.02,NE,45,0.0,9.0,45,0.00,,,0.01,Wunderground v.1.12,2013-05-25 23:44:00,
2013-05-25 19:48:00,51.7,31.0,30.01,SSW,205,1.0,1.0,45,0.00,,,0.01,Wunderground v.1.12,2013-05-25 23:48:00,
2013-05-25 19:49:00,51.6,30.9,30.02,West,270,0.0,4.0,45,0.00,,,0.01,Wunderground v.1.12,2013-05-25 23:49:00,
2013-05-25 19:53:00,51.6,33.0,30.01,WNW,298,3.0,3.0,49,0.00,,,0.01,Wunderground v.1.12,2013-05-25 23:53:00,
2013-05-25 19:54:00,51.6,31.5,30.02,NW,315,1.0,6.0,46,0.00,,,0.01,Wunderground v.1.12,2013-05-25 23:54:00,
2013-05-25 19:58:00,51.6,30.9,30.02,SW,226,1.0,2.0,45,0.00,,,0.01,Wunderground v.1.12,2013-05-25 23:58:00,
2013-05-25 19:59:00,51.6,30.9,30.02,WNW,293,0.0,7.0,45,0.00,,,0.01,Wunderground v.1.12,2013-05-25 23:59:00,
2013-05-25 20:03:00,51.6,30.9,30.02,NW,309,3.0,4.0,45,0.00,,,0.01,Wunderground v.1.12,2013-05-26 00:03:00,
2013-05-25 20:04:00,51.4,31.3,30.02,NW,315,0.0,3.0,46,0.00,,,0.01,Wunderground v.1.12,2013-05-26 00:04:00,
2013-05-25 20:08:00,51.6,31.5,30.02,NW,306,0.0,3.0,46,0.00,,,0.01,Wunderground v.1.12,2013-05-26 00:08:00,
2013-05-25 20:09:00,51.3,31.2,30.02,WSW,248,1.0,5.0,46,0.00,,,0.01,Wunderground v.1.12,2013-05-26 00:09:00,
2013-05-25 20:13:00,51.6,30.9,30.02,NNW,340,0.0,2.0,45,0.00,,,0.01,Wunderground v.1.12,2013-05-26 00:13:00,
2013-05-25 20:14:00,51.3,31.7,30.02,North,0,0.0,2.0,47,0.00,,,0.01,Wunderground v.1.12,2013-05-26 00:14:00,
2013-05-25 20:18:00,51.4,31.3,30.02,WSW,239,1.0,1.0,46,0.00,,,0.01,Wunderground v.1.12,2013-05-26 00:18:00,
2013-05-25 20:19:00,51.0,32.0,30.02,SSE,158,0.0,4.0,48,0.00,,,0.01,Wunderground v.1.12,2013-05-26 00:19:00,
2013-05-25 20:23:00,51.3,31.2,30.02,West,277,0.0,4.0,46,0.00,,,0.01,Wunderground v.1.12,2013-05-26 00:23:00,
2013-05-25 20:24:00,51.0,31.5,30.02,SW,225,0.0,4.0,47,0.00,,,0.01,Wunderground v.1.12,2013-05-26 00:24:00,
2013-05-25 20:29:00,51.1,32.1,30.02,WSW,244,0.0,0.0,48,0.00,,,0.01,Wunderground v.1.12,2013-05-26 00:29:00,
2013-05-25 20:34:00,51.0,31.5,30.02,SW,236,2.0,4.0,47,0.00,,,0.01,Wunderground v.1.12,2013-05-26 00:34:00,
2013-05-25 20:39:00,51.0,30.9,30.02,NW,310,0.0,4.0,46,0.00,,,0.01,Wunderground v.1.12,2013-05-26 00:39:00,
2013-05-25 20:44:00,51.0,31.5,30.03,SSW,198,0.0,5.0,47,0.00,,,0.01,Wunderground v.1.12,2013-05-26 00:44:00,
2013-05-25 20:49:00,50.8,31.8,30.03,SW,223,0.0,1.0,48,0.00,,,0.01,Wunderground v.1.12,2013-05-26 00:49:00,
2013-05-25 20:54:00,50.7,31.7,30.03,West,266,0.0,1.0,48,0.00,,,0.01,Wunderground v.1.12,2013-05-26 00:54:00,
2013-05-25 20:59:00,50.7,31.7,30.02,WNW,293,0.0,4.0,48,0.00,,,0.01,Wunderground v.1.12,2013-05-26 00:59:00,
2013-05-25 21:00:00,50.7,32.7,30.02,South,190,0.0,11.0,50,0.00,,,0.01,Wunderground v.1.12,2013-05-26 01:00:00,
2013-05-25 21:04:00,50.7,31.7,30.02,West,270,1.0,5.0,48,0.00,,,0.01,Wunderground v.1.12,2013-05-26 01:04:00,
2013-05-25 21:05:00,50.7,31.2,30.02,NW,311,0.0,1.0,47,0.00,,,0.01,Wunderground v.1.12,2013-05-26 01:05:00,
2013-05-25 21:09:00,50.4,32.4,30.02,SW,225,0.0,4.0,50,0.00,,,0.01,Wunderground v.1.12,2013-05-26 01:09:00,
2013-05-25 21:10:00,50.7,31.7,30.02,West,281,0.0,3.0,48,0.00,,,0.01,Wunderground v.1.12,2013-05-26 01:10:00,
2013-05-25 21:14:00,50.4,32.4,30.03,West,270,1.0,4.0,50,0.00,,,0.01,Wunderground v.1.12,2013-05-26 01:14:00,
2013-05-25 21:15:00,50.7,31.7,30.02,West,270,2.0,2.0,48,0.00,,,0.01,Wunderground v.1.12,2013-05-26 01:15:00,
2013-05-25 21:19:00,50.2,31.8,30.03,West,270,0.0,4.0,49,0.00,,,0.01,Wunderground v.1.12,2013-05-26 01:19:00,
2013-05-25 21:20:00,50.7,32.2,30.02,SSW,209,0.0,3.0,49,0.00,,,0.01,Wunderground v.1.12,2013-05-26 01:20:00,
2013-05-25 21:24:00,50.2,32.3,30.03,NNE,23,0.0,4.0,50,0.00,,,0.01,Wunderground v.1.12,2013-05-26 01:24:00,
2013-05-25 21:25:00,50.4,31.9,30.02,SSW,209,1.0,4.0,49,0.00,,,0.01,Wunderground v.1.12,2013-05-26 01:25:00,
2013-05-25 21:29:00,49.9,32.0,30.03,N/A,-737280,0.0,0.0,50,0.00,,,0.01,Wunderground v.1.12,2013-05-26 01:29:00,
2013-05-25 21:30:00,50.4,32.4,30.03,West,267,0.0,4.0,50,0.00,,,0.01,Wunderground v.1.12,2013-05-26 01:30:00,
2013-05-25 21:34:00,49.8,32.9,30.03,N/A,-737280,0.0,0.0,52,0.00,,,0.01,Wunderground v.1.12,2013-05-26 01:34:00,
2013-05-25 21:35:00,50.2,32.3,30.03,West,268,0.0,2.0,50,0.00,,,0.01,Wunderground v.1.12,2013-05-26 01:35:00,
2013-05-25 21:39:00,49.6,33.2,30.03,WSW,248,0.0,1.0,53,0.00,,,0.01,Wunderground v.1.12,2013-05-26 01:39:00,
2013-05-25 21:40:00,50.1,32.7,30.03,West,273,0.0,3.0,51,0.00,,,0.01,Wunderground v.1.12,2013-05-26 01:40:00,
2013-05-25 21:44:00,49.4,32.5,30.02,N/A,-737280,0.0,0.0,52,0.00,,,0.01,Wunderground v.1.12,2013-05-26 01:44:00,
2013-05-25 21:45:00,49.9,32.5,30.03,West,273,0.0,0.0,51,0.00,,,0.01,Wunderground v.1.12,2013-05-26 01:45:00,
2013-05-25 21:49:00,49.2,33.3,30.02,N/A,-737280,0.0,0.0,54,0.00,,,0.01,Wunderground v.1.12,2013-05-26 01:49:00,
2013-05-25 21:50:00,49.8,32.4,30.03,WSW,238,0.0,0.0,51,0.00,,,0.01,Wunderground v.1.12,2013-05-26 01:50:00,
2013-05-25 21:54:00,49.2,32.8,30.02,N/A,-737280,0.0,0.0,53,0.00,,,0.01,Wunderground v.1.12,2013-05-26 01:54:00,
2013-05-25 21:55:00,49.5,33.1,30.03,SSE,166,0.0,0.0,53,0.00,,,0.01,Wunderground v.1.12,2013-05-26 01:55:00,
2013-05-25 21:59:00,49.2,32.8,30.02,N/A,-737280,0.0,0.0,53,0.00,,,0.01,Wunderground v.1.12,2013-05-26 01:59:00,
2013-05-25 22:00:00,49.4,33.0,30.02,SSE,166,0.0,0.0,53,0.00,,,0.01,Wunderground v.1.12,2013-05-26 02:00:00,
2013-05-25 22:04:00,49.2,32.3,30.02,West,270,0.0,1.0,52,0.00,,,0.01,Wunderground v.1.12,2013-05-26 02:04:00,
2013-05-25 22:05:00,49.2,33.3,30.02,SSE,166,0.0,0.0,54,0.00,,,0.01,Wunderground v.1.12,2013-05-26 02:05:00,
2013-05-25 22:09:00,49.2,32.3,30.02,N/A,-737280,0.0,0.0,52,0.00,,,0.01,Wunderground v.1.12,2013-05-26 02:09:00,
2013-05-25 22:10:00,49.1,32.2,30.02,SSE,166,0.0,0.0,52,0.00,,,0.01,Wunderground v.1.12,2013-05-26 02:10:00,
2013-05-25 22:14:00,49.2,32.8,30.02,N/A,-737280,0.0,0.0,53,0.00,,,0.01,Wunderground v.1.12,2013-05-26 02:14:00,
2013-05-25 22:15:00,49.2,32.8,30.02,SSE,166,0.0,0.0,53,0.00,,,0.01,Wunderground v.1.12,2013-05-26 02:15:00,
2013-05-25 22:19:00,49.1,32.7,30.02,SSE,158,0.0,1.0,53,0.00,,,0.01,Wunderground v.1.12,2013-05-26 02:19:00,
2013-05-25 22:20:00,49.2,32.3,30.02,South,179,0.0,1.0,52,0.00,,,0.01,Wunderground v.1.12,2013-05-26 02:20:00,
2013-05-25 22:24:00,49.1,32.2,30.02,N/A,-737280,0.0,0.0,52,0.00,,,0.01,Wunderground v.1.12,2013-05-26 02:24:00,
2013-05-25 22:26:00,49.2,32.3,30.02,South,179,0.0,0.0,52,0.00,,,0.01,Wunderground v.1.12,2013-05-26 02:26:00,
2013-05-25 22:29:00,49.1,33.2,30.02,N/A,-737280,0.0,0.0,54,0.00,,,0.01,Wunderground v.1.12,2013-05-26 02:29:00,
2013-05-25 22:31:00,49.1,33.2,30.02,SSE,167,0.0,0.0,54,0.00,,,0.01,Wunderground v.1.12,2013-05-26 02:31:00,
2013-05-25 22:34:00,49.1,32.2,30.02,South,180,0.0,1.0,52,0.00,,,0.01,Wunderground v.1.12,2013-05-26 02:34:00,
2013-05-25 22:36:00,49.1,32.2,30.02,SSE,157,0.0,0.0,52,0.00,,,0.01,Wunderground v.1.12,2013-05-26 02:36:00,
2013-05-25 22:39:00,49.1,32.7,30.02,N/A,-737280,0.0,0.0,53,0.00,,,0.01,Wunderground v.1.12,2013-05-26 02:39:00,
2013-05-25 22:41:00,49.1,32.2,30.02,South,174,0.0,0.0,52,0.00,,,0.01,Wunderground v.1.12,2013-05-26 02:41:00,
2013-05-25 22:44:00,48.9,33.0,30.02,SSE,158,0.0,3.0,54,0.00,,,0.01,Wunderground v.1.12,2013-05-26 02:44:00,
2013-05-25 22:46:00,49.1,32.2,30.02,South,173,0.0,0.0,52,0.00,,,0.01,Wunderground v.1.12,2013-05-26 02:46:00,
2013-05-25 22:49:00,48.8,32.9,30.02,SSE,158,0.0,1.0,54,0.00,,,0.01,Wunderground v.1.12,2013-05-26 02:49:00,
2013-05-25 22:51:00,49.1,32.7,30.02,South,173,0.0,0.0,53,0.00,,,0.01,Wunderground v.1.12,2013-05-26 02:51:00,
2013-05-25 22:54:00,48.9,32.5,30.02,N/A,-737280,0.0,0.0,53,0.00,,,0.01,Wunderground v.1.12,2013-05-26 02:54:00,
2013-05-25 22:56:00,48.9,33.0,30.02,SE,140,0.0,0.0,54,0.00,,,0.01,Wunderground v.1.12,2013-05-26 02:56:00,
2013-05-25 22:59:00,48.8,32.9,30.02,N/A,-737280,0.0,0.0,54,0.00,,,0.01,Wunderground v.1.12,2013-05-26 02:59:00,
2013-05-25 23:01:00,48.8,32.9,30.02,East,89,0.0,0.0,54,0.00,,,0.01,Wunderground v.1.12,2013-05-26 03:01:00,
2013-05-25 23:04:00,48.8,32.9,30.02,ENE,68,0.0,1.0,54,0.00,,,0.01,Wunderground v.1.12,2013-05-26 03:04:00,
2013-05-25 23:06:00,48.9,32.5,30.02,ENE,63,0.0,0.0,53,0.00,,,0.01,Wunderground v.1.12,2013-05-26 03:06:00,
2013-05-25 23:09:00,48.8,33.8,30.02,N/A,-737280,0.0,0.0,56,0.00,,,0.01,Wunderground v.1.12,2013-05-26 03:09:00,
2013-05-25 23:11:00,48.9,33.0,30.02,ENE,63,0.0,0.0,54,0.00,,,0.01,Wunderground v.1.12,2013-05-26 03:11:00,
2013-05-25 23:14:00,48.8,32.9,30.02,N/A,-737280,0.0,0.0,54,0.00,,,0.01,Wunderground v.1.12,2013-05-26 03:14:00,
2013-05-25 23:16:00,48.8,32.9,30.02,ENE,63,0.0,0.0,54,0.00,,,0.01,Wunderground v.1.12,2013-05-26 03:16:00,
2013-05-25 23:19:00,48.6,33.6,30.02,N/A,-737280,0.0,0.0,56,0.00,,,0.01,Wunderground v.1.12,2013-05-26 03:19:00,
2013-05-25 23:21:00,48.8,33.3,30.02,ESE,123,0.0,0.0,55,0.00,,,0.01,Wunderground v.1.12,2013-05-26 03:21:00,
2013-05-25 23:24:00,48.5,33.1,30.02,N/A,-737280,0.0,0.0,55,0.00,,,0.01,Wunderground v.1.12,2013-05-26 03:24:00,
2013-05-25 23:26:00,48.8,32.9,30.02,ESE,123,0.0,0.0,54,0.00,,,0.01,Wunderground v.1.12,2013-05-26 03:26:00,
2013-05-25 23:29:00,48.3,32.9,30.02,South,180,0.0,1.0,55,0.00,,,0.01,Wunderground v.1.12,2013-05-26 03:29:00,
2013-05-25 23:31:00,48.8,33.3,30.02,ESE,123,0.0,0.0,55,0.00,,,0.01,Wunderground v.1.12,2013-05-26 03:31:00,
2013-05-25 23:34:00,48.2,33.2,30.02,South,180,0.0,1.0,56,0.00,,,0.01,Wunderground v.1.12,2013-05-26 03:34:00,
2013-05-25 23:37:00,48.6,32.7,30.02,ESE,123,0.0,0.0,54,0.00,,,0.01,Wunderground v.1.12,2013-05-26 03:37:00,
2013-05-25 23:39:00,48.0,33.0,30.02,N/A,-737280,0.0,0.0,56,0.00,,,0.01,Wunderground v.1.12,2013-05-26 03:39:00,
2013-05-25 23:42:00,48.3,32.9,30.02,SW,217,0.0,1.0,55,0.00,,,0.01,Wunderground v.1.12,2013-05-26 03:42:00,
2013-05-25 23:44:00,48.2,33.2,30.01,SSW,203,0.0,3.0,56,0.00,,,0.01,Wunderground v.1.12,2013-05-26 03:44:00,
2013-05-25 23:47:00,48.3,32.9,30.02,South,180,0.0,1.0,55,0.00,,,0.01,Wunderground v.1.12,2013-05-26 03:47:00,
2013-05-25 23:49:00,48.2,33.7,30.01,N/A,-737280,0.0,0.0,57,0.00,,,0.01,Wunderground v.1.12,2013-05-26 03:49:00,
2013-05-25 23:52:00,48.2,33.2,30.02,South,180,0.0,0.0,56,0.00,,,0.01,Wunderground v.1.12,2013-05-26 03:52:00,
2013-05-25 23:54:00,48.2,34.1,30.01,NW,315,0.0,3.0,58,0.00,,,0.01,Wunderground v.1.12,2013-05-26 03:54:00,
2013-05-25 23:57:00,48.2,34.1,30.02,NW,304,1.0,1.0,58,0.00,,,0.01,Wunderground v.1.12,2013-05-26 03:57:00,
2013-05-25 23:59:00,48.3,33.3,30.01,NE,45,0.0,4.0,56,0.00,,,0.01,Wunderground v.1.12,2013-05-26 03:59:00,